createdAt,value
2018-08-19T00:00:52.763Z,20.10
2018-08-19T00:03:21.432Z,20.00
2018-08-19T00:05:49.991Z,19.90
2018-08-19T00:08:18.555Z,19.90
2018-08-19T00:10:59.132Z,19.90
2018-08-19T00:13:27.770Z,19.70
2018-08-19T00:15:56.642Z,19.70
2018-08-19T00:18:25.239Z,19.70
2018-08-19T00:20:53.911Z,19.70
2018-08-19T00:23:22.519Z,19.70
2018-08-19T00:25:51.318Z,19.60
2018-08-19T00:28:20.910Z,19.60
2018-08-19T00:30:49.951Z,19.50
2018-08-19T00:33:18.555Z,19.40
2018-08-19T00:35:47.454Z,19.40
2018-08-19T00:38:16.675Z,19.30
2018-08-19T00:40:45.488Z,19.20
2018-08-19T00:43:14.003Z,19.10
2018-08-19T00:45:42.626Z,19.10
2018-08-19T00:48:11.850Z,19.00
2018-08-19T00:50:41.033Z,19.00
2018-08-19T00:53:10.751Z,19.00
2018-08-19T00:55:44.716Z,19.00
2018-08-19T00:58:15.034Z,19.00
2018-08-19T01:00:43.695Z,18.90
2018-08-19T01:03:12.676Z,18.80
2018-08-19T01:05:41.180Z,18.80
2018-08-19T01:08:11.361Z,18.70
2018-08-19T01:10:40.118Z,18.60
2018-08-19T01:13:09.355Z,18.60
2018-08-19T01:15:37.941Z,18.50
2018-08-19T01:18:06.580Z,18.50
2018-08-19T01:20:35.234Z,18.40
2018-08-19T01:23:03.811Z,18.30
2018-08-19T01:25:32.349Z,18.30
2018-08-19T01:28:00.850Z,18.30
2018-08-19T01:30:29.402Z,18.30
2018-08-19T01:32:58.074Z,18.20
2018-08-19T01:35:32.531Z,18.10
2018-08-19T01:38:01.434Z,18.10
2018-08-19T01:40:29.944Z,18.10
2018-08-19T01:42:58.394Z,18.10
2018-08-19T01:45:26.898Z,18.10
2018-08-19T01:47:55.392Z,18.00
2018-08-19T01:50:23.896Z,18.20
2018-08-19T01:52:52.422Z,18.20
2018-08-19T01:55:20.896Z,18.00
2018-08-19T01:57:50.440Z,17.90
2018-08-19T02:00:19.640Z,17.80
2018-08-19T02:03:01.271Z,17.80
2018-08-19T02:05:29.742Z,17.70
2018-08-19T02:07:59.943Z,17.70
2018-08-19T02:10:29.421Z,17.70
2018-08-19T02:12:58.689Z,17.60
2018-08-19T02:15:28.446Z,17.50
2018-08-19T02:17:59.104Z,17.50
2018-08-19T02:20:33.001Z,17.60
2018-08-19T02:23:05.775Z,17.60
2018-08-19T02:25:44.094Z,17.50
2018-08-19T02:28:13.334Z,17.40
2018-08-19T02:30:47.262Z,17.40
2018-08-19T02:33:15.710Z,17.50
2018-08-19T02:35:49.562Z,17.50
2018-08-19T02:38:18.359Z,17.50
2018-08-19T02:40:47.392Z,17.50
2018-08-19T02:43:15.878Z,17.50
2018-08-19T02:45:44.318Z,17.50
2018-08-19T02:48:12.821Z,17.50
2018-08-19T02:50:41.281Z,17.40
2018-08-19T02:53:09.867Z,17.50
2018-08-19T02:55:38.378Z,17.50
2018-08-19T02:58:12.275Z,17.40
2018-08-19T03:00:40.742Z,17.40
2018-08-19T03:03:09.231Z,17.40
2018-08-19T03:05:38.131Z,17.30
2018-08-19T03:08:06.675Z,17.20
2018-08-19T03:10:35.312Z,17.30
2018-08-19T03:13:03.880Z,17.40
2018-08-19T03:15:32.440Z,17.40
2018-08-19T03:18:00.946Z,17.40
2018-08-19T03:20:29.445Z,17.40
2018-08-19T03:22:57.927Z,17.40
2018-08-19T03:25:26.584Z,17.40
2018-08-19T03:27:55.063Z,17.40
2018-08-19T03:30:23.527Z,17.40
2018-08-19T03:32:57.160Z,17.40
2018-08-19T03:35:26.483Z,17.40
2018-08-19T03:37:55.638Z,17.50
2018-08-19T03:40:26.474Z,17.50
2018-08-19T03:42:55.311Z,17.40
2018-08-19T03:45:23.786Z,17.40
2018-08-19T03:47:53.183Z,17.40
2018-08-19T03:50:24.023Z,17.40
2018-08-19T03:52:53.385Z,17.60
2018-08-19T03:55:26.650Z,17.80
2018-08-19T03:58:00.555Z,17.70
2018-08-19T04:00:31.164Z,17.50
2018-08-19T04:02:59.685Z,17.40
2018-08-19T04:05:43.159Z,17.40
2018-08-19T04:08:13.006Z,17.60
2018-08-19T04:10:42.805Z,17.70
2018-08-19T04:13:26.943Z,17.60
2018-08-19T04:15:57.406Z,17.70
2018-08-19T04:18:32.047Z,17.60
2018-08-19T04:21:03.371Z,17.60
2018-08-19T04:23:32.683Z,17.60
2018-08-19T04:26:01.563Z,17.60
2018-08-19T04:28:30.122Z,17.60
2018-08-19T04:30:58.676Z,17.60
2018-08-19T04:33:32.439Z,17.60
2018-08-19T04:36:01.756Z,17.50
2018-08-19T04:38:30.575Z,17.50
2018-08-19T04:41:00.575Z,17.40
2018-08-19T04:43:30.000Z,17.40
2018-08-19T04:45:58.608Z,17.40
2018-08-19T04:48:27.787Z,17.40
2018-08-19T04:50:57.162Z,17.40
2018-08-19T04:53:26.342Z,17.50
2018-08-19T04:55:55.223Z,17.60
2018-08-19T04:58:23.888Z,17.70
2018-08-19T05:00:52.390Z,17.80
2018-08-19T05:03:20.858Z,17.70
2018-08-19T05:05:49.318Z,17.70
2018-08-19T05:08:17.920Z,17.80
2018-08-19T05:10:46.332Z,17.90
2018-08-19T05:13:14.788Z,17.90
2018-08-19T05:15:43.607Z,18.10
2018-08-19T05:18:12.067Z,18.20
2018-08-19T05:20:40.576Z,18.20
2018-08-19T05:23:09.119Z,18.30
2018-08-19T05:26:11.797Z,18.30
2018-08-19T05:28:40.955Z,18.30
2018-08-19T05:31:09.414Z,18.50
2018-08-19T05:33:38.003Z,18.50
2018-08-19T05:36:06.495Z,18.60
2018-08-19T05:38:34.974Z,18.60
2018-08-19T05:41:03.588Z,18.60
2018-08-19T05:43:32.225Z,18.70
2018-08-19T05:46:01.542Z,19.00
2018-08-19T05:48:30.286Z,19.20
2018-08-19T05:50:59.208Z,19.20
2018-08-19T05:53:27.673Z,19.10
2018-08-19T05:55:56.194Z,19.00
2018-08-19T05:58:24.754Z,19.00
2018-08-19T06:01:00.799Z,19.00
2018-08-19T06:03:29.839Z,19.10
2018-08-19T06:05:58.718Z,19.10
2018-08-19T06:08:27.211Z,19.30
2018-08-19T06:10:55.764Z,19.60
2018-08-19T06:13:24.411Z,19.90
2018-08-19T06:15:52.959Z,20.10
2018-08-19T06:18:21.440Z,20.20
2018-08-19T06:20:49.967Z,20.10
2018-08-19T06:23:19.386Z,20.00
2018-08-19T06:25:47.918Z,20.00
2018-08-19T06:28:16.411Z,20.30
2018-08-19T06:30:44.866Z,20.70
2018-08-19T06:33:13.326Z,21.00
2018-08-19T06:35:41.804Z,21.30
2018-08-19T06:38:10.292Z,21.50
2018-08-19T06:40:38.856Z,22.20
2018-08-19T06:43:07.780Z,22.60
2018-08-19T06:45:36.229Z,23.30
2018-08-19T06:48:04.887Z,23.40
2018-08-19T06:50:34.892Z,23.70
2018-08-19T06:53:03.464Z,24.20
2018-08-19T06:55:32.059Z,24.30
2018-08-19T06:58:01.047Z,24.70
2018-08-19T07:00:30.668Z,24.80
2018-08-19T07:03:00.301Z,25.20
2018-08-19T07:05:29.418Z,25.50
2018-08-19T07:07:57.962Z,25.90
2018-08-19T07:10:38.567Z,25.60
2018-08-19T07:13:09.551Z,26.30
2018-08-19T07:15:39.500Z,26.70
2018-08-19T07:18:09.811Z,27.30
2018-08-19T07:20:39.462Z,27.40
2018-08-19T07:23:08.604Z,27.60
2018-08-19T07:25:39.063Z,27.10
2018-08-19T07:28:09.228Z,26.90
2018-08-19T07:30:37.767Z,26.50
2018-08-19T07:33:06.637Z,26.90
2018-08-19T07:35:35.115Z,26.70
2018-08-19T07:38:04.034Z,26.50
2018-08-19T07:40:32.717Z,26.20
2018-08-19T07:43:01.338Z,27.10
2018-08-19T07:45:30.121Z,27.20
2018-08-19T07:47:58.766Z,28.00
2018-08-19T07:50:27.271Z,28.90
2018-08-19T07:52:55.976Z,28.50
2018-08-19T07:55:24.810Z,28.40
2018-08-19T07:57:53.222Z,28.40
2018-08-19T08:00:27.027Z,28.60
2018-08-19T08:02:55.555Z,28.30
2018-08-19T08:05:26.695Z,27.40
2018-08-19T08:07:55.644Z,27.30
2018-08-19T08:10:24.253Z,27.60
2018-08-19T08:13:00.959Z,28.40
2018-08-19T08:15:29.523Z,30.00
2018-08-19T08:17:58.043Z,30.40
2018-08-19T08:20:27.021Z,29.70
2018-08-19T08:22:55.672Z,28.70
2018-08-19T08:25:24.309Z,28.50
2018-08-19T08:27:52.883Z,29.60
2018-08-19T08:30:22.139Z,30.70
2018-08-19T08:32:52.513Z,30.50
2018-08-19T08:35:21.156Z,29.50
2018-08-19T08:37:49.670Z,28.90
2018-08-19T08:40:18.502Z,28.30
2018-08-19T08:42:47.174Z,27.90
2018-08-19T08:45:20.003Z,28.10
2018-08-19T08:47:48.700Z,28.60
2018-08-19T08:50:17.127Z,28.60
2018-08-19T08:52:46.106Z,28.40
2018-08-19T08:55:14.993Z,28.60
2018-08-19T08:57:43.619Z,30.20
2018-08-19T09:00:13.650Z,31.10
2018-08-19T09:02:42.195Z,31.30
2018-08-19T09:05:11.960Z,31.50
2018-08-19T09:07:41.268Z,32.10
2018-08-19T09:10:12.721Z,31.60
2018-08-19T09:12:53.126Z,31.40
2018-08-19T09:15:21.725Z,31.50
2018-08-19T09:17:50.329Z,31.90
2018-08-19T09:20:18.912Z,32.30
2018-08-19T09:22:48.374Z,33.40
2018-08-19T09:25:16.930Z,31.90
2018-08-19T09:27:45.566Z,31.30
2018-08-19T09:30:22.462Z,31.10
2018-08-19T09:32:59.797Z,32.60
2018-08-19T09:35:29.967Z,34.00
2018-08-19T09:38:03.071Z,36.30
2018-08-19T09:40:32.251Z,36.40
2018-08-19T09:43:00.787Z,36.50
2018-08-19T09:45:29.567Z,36.70
2018-08-19T09:47:58.244Z,36.40
2018-08-19T09:50:26.577Z,36.20
2018-08-19T09:52:55.103Z,35.90
2018-08-19T09:55:32.998Z,35.80
2018-08-19T09:58:01.977Z,36.30
2018-08-19T10:00:38.921Z,36.20
2018-08-19T10:03:07.622Z,35.70
2018-08-19T10:05:36.521Z,35.70
2018-08-19T10:08:05.154Z,35.70
2018-08-19T10:10:34.251Z,36.60
2018-08-19T10:13:03.111Z,37.90
2018-08-19T10:15:31.615Z,39.60
2018-08-19T10:18:00.141Z,38.20
2018-08-19T10:20:28.735Z,37.30
2018-08-19T10:22:58.127Z,37.80
2018-08-19T10:25:26.595Z,39.00
2018-08-19T10:27:56.267Z,38.60
2018-08-19T10:30:24.773Z,38.70
2018-08-19T10:33:03.784Z,39.20
2018-08-19T10:35:33.447Z,37.00
2018-08-19T10:38:02.586Z,35.10
2018-08-19T10:40:31.155Z,34.40
2018-08-19T10:43:01.676Z,33.10
2018-08-19T10:45:30.475Z,32.20
2018-08-19T10:47:59.006Z,31.30
2018-08-19T10:50:29.329Z,30.90
2018-08-19T10:52:57.999Z,30.40
2018-08-19T10:55:27.183Z,29.90
2018-08-19T10:57:55.843Z,29.80
2018-08-19T11:00:32.121Z,29.90
2018-08-19T11:03:09.445Z,30.10
2018-08-19T11:05:40.086Z,29.80
2018-08-19T11:08:09.580Z,29.80
2018-08-19T11:10:38.086Z,30.20
2018-08-19T11:13:07.343Z,30.40
2018-08-19T11:15:51.688Z,30.50
2018-08-19T11:18:41.683Z,30.30
2018-08-19T11:21:44.395Z,30.40
2018-08-19T11:24:17.820Z,30.00
2018-08-19T11:26:50.517Z,29.40
2018-08-19T11:29:19.051Z,29.30
2018-08-19T11:31:47.615Z,29.80
2018-08-19T11:34:16.085Z,30.10
2018-08-19T11:36:45.602Z,30.30
2018-08-19T11:39:15.336Z,30.50
2018-08-19T11:41:43.976Z,30.50
2018-08-19T11:44:16.482Z,30.70
2018-08-19T11:46:46.271Z,30.70
2018-08-19T11:49:19.267Z,30.50
2018-08-19T11:51:49.738Z,30.30
2018-08-19T11:54:20.315Z,30.40
2018-08-19T11:56:58.979Z,30.90
2018-08-19T11:59:32.706Z,31.20
2018-08-19T12:02:02.329Z,31.50
2018-08-19T12:04:30.907Z,31.90
2018-08-19T12:06:59.618Z,31.50
2018-08-19T12:09:28.187Z,30.40
2018-08-19T12:11:56.689Z,30.50
2018-08-19T12:14:25.274Z,31.30
2018-08-19T12:16:55.472Z,31.70
2018-08-19T12:19:26.158Z,31.80
2018-08-19T12:21:55.897Z,31.90
2018-08-19T12:24:30.071Z,31.80
2018-08-19T12:27:00.473Z,31.70
2018-08-19T12:29:30.218Z,31.80
2018-08-19T12:32:18.490Z,31.50
2018-08-19T12:34:51.372Z,31.30
2018-08-19T12:37:21.076Z,31.10
2018-08-19T12:39:50.153Z,30.90
2018-08-19T12:42:19.079Z,31.20
2018-08-19T12:44:58.258Z,31.30
2018-08-19T12:47:27.802Z,31.20
2018-08-19T12:49:58.163Z,31.20
2018-08-19T12:52:28.371Z,31.40
2018-08-19T12:55:12.665Z,31.00
2018-08-19T12:57:42.390Z,31.30
2018-08-19T13:00:15.910Z,31.60
2018-08-19T13:02:46.104Z,32.10
2018-08-19T13:05:15.965Z,32.30
2018-08-19T13:07:44.762Z,32.40
2018-08-19T13:10:14.385Z,31.80
2018-08-19T13:12:48.165Z,31.80
2018-08-19T13:15:16.859Z,31.70
2018-08-19T13:17:45.483Z,32.00
2018-08-19T13:20:14.144Z,32.20
2018-08-19T13:22:50.008Z,32.10
2018-08-19T13:25:19.607Z,32.50
2018-08-19T13:27:48.099Z,32.40
2018-08-19T13:30:17.276Z,32.70
2018-08-19T13:32:47.122Z,32.90
2018-08-19T13:35:15.686Z,33.10
2018-08-19T13:37:44.537Z,33.30
2018-08-19T13:40:13.737Z,33.00
2018-08-19T13:42:42.404Z,33.20
2018-08-19T13:45:19.078Z,33.00
2018-08-19T13:47:54.507Z,33.00
2018-08-19T13:50:23.177Z,32.40
2018-08-19T13:52:51.713Z,32.20
2018-08-19T13:55:21.355Z,31.80
2018-08-19T13:57:49.868Z,32.10
2018-08-19T14:00:24.690Z,32.00
2018-08-19T14:02:53.288Z,32.10
2018-08-19T14:05:21.982Z,31.90
2018-08-19T14:07:50.454Z,31.70
2018-08-19T14:10:18.936Z,31.80
2018-08-19T14:12:47.503Z,31.60
2018-08-19T14:15:16.093Z,31.30
2018-08-19T14:17:45.309Z,31.60
2018-08-19T14:20:13.901Z,31.80
2018-08-19T14:22:42.566Z,31.90
2018-08-19T14:25:12.069Z,31.60
2018-08-19T14:27:40.754Z,31.10
2018-08-19T14:30:11.719Z,30.60
2018-08-19T14:32:41.964Z,30.30
2018-08-19T14:35:10.565Z,30.20
2018-08-19T14:37:39.288Z,30.50
2018-08-19T14:40:09.717Z,31.00
2018-08-19T14:42:38.322Z,31.00
2018-08-19T14:45:07.167Z,31.10
2018-08-19T14:47:35.684Z,31.20
2018-08-19T14:50:10.411Z,31.30
2018-08-19T14:52:38.876Z,31.50
2018-08-19T14:55:08.367Z,31.60
2018-08-19T14:57:36.943Z,31.60
2018-08-19T15:00:08.587Z,31.30
2018-08-19T15:02:37.507Z,31.20
2018-08-19T15:05:06.255Z,31.40
2018-08-19T15:07:35.020Z,31.30
2018-08-19T15:10:03.670Z,31.50
2018-08-19T15:12:32.158Z,31.70
2018-08-19T15:15:01.256Z,31.40
2018-08-19T15:17:29.846Z,31.20
2018-08-19T15:19:58.373Z,31.10
2018-08-19T15:22:26.890Z,30.80
2018-08-19T15:24:55.426Z,30.60
2018-08-19T15:27:23.932Z,30.50
2018-08-19T15:29:53.979Z,30.50
2018-08-19T15:32:23.896Z,30.40
2018-08-19T15:34:52.220Z,30.50
2018-08-19T15:37:20.734Z,30.40
2018-08-19T15:39:49.232Z,30.10
2018-08-19T15:42:17.728Z,30.20
2018-08-19T15:44:46.355Z,30.20
2018-08-19T15:47:14.980Z,30.00
2018-08-19T15:49:43.629Z,30.10
2018-08-19T15:52:12.093Z,30.20
2018-08-19T15:54:47.317Z,30.00
2018-08-19T15:57:15.860Z,29.90
2018-08-19T15:59:44.455Z,29.90
2018-08-19T16:02:13.443Z,30.00
2018-08-19T16:04:41.999Z,29.90
2018-08-19T16:07:10.512Z,29.90
2018-08-19T16:09:39.227Z,29.90
2018-08-19T16:12:07.884Z,29.90
2018-08-19T16:14:36.335Z,29.90
2018-08-19T16:17:04.949Z,29.90
2018-08-19T16:19:33.462Z,29.90
2018-08-19T16:22:02.192Z,29.60
2018-08-19T16:24:30.657Z,29.50
2018-08-19T16:26:59.272Z,29.40
2018-08-19T16:29:27.772Z,29.20
2018-08-19T16:31:57.146Z,29.30
2018-08-19T16:34:25.611Z,29.30
2018-08-19T16:36:54.161Z,29.30
2018-08-19T16:39:22.735Z,29.30
2018-08-19T16:41:51.300Z,29.30
2018-08-19T16:44:19.811Z,29.30
2018-08-19T16:46:48.298Z,29.20
2018-08-19T16:49:16.793Z,29.10
2018-08-19T16:51:45.307Z,28.80
2018-08-19T16:54:13.771Z,28.60
2018-08-19T16:56:42.270Z,28.60
2018-08-19T16:59:10.836Z,28.60
2018-08-19T17:01:39.310Z,28.40
2018-08-19T17:04:07.811Z,28.40
2018-08-19T17:06:38.006Z,28.40
2018-08-19T17:09:08.427Z,28.50
2018-08-19T17:11:36.903Z,28.30
2018-08-19T17:14:05.450Z,28.30
2018-08-19T17:16:33.975Z,28.20
2018-08-19T17:19:02.644Z,28.10
2018-08-19T17:21:31.111Z,27.80
2018-08-19T17:23:59.736Z,27.80
2018-08-19T17:26:28.333Z,27.70
2018-08-19T17:29:04.040Z,27.60
2018-08-19T17:31:32.840Z,27.40
2018-08-19T17:34:01.347Z,27.30
2018-08-19T17:36:34.628Z,27.10
2018-08-19T17:39:03.475Z,27.00
2018-08-19T17:41:32.272Z,26.80
2018-08-19T17:44:03.113Z,26.80
2018-08-19T17:46:31.600Z,26.70
2018-08-19T17:49:00.176Z,26.60
2018-08-19T17:51:33.256Z,26.60
2018-08-19T17:54:01.784Z,26.40
2018-08-19T17:56:30.255Z,26.40
2018-08-19T17:58:58.828Z,26.30
2018-08-19T18:01:27.334Z,26.20
2018-08-19T18:03:55.835Z,26.10
2018-08-19T18:06:24.355Z,26.00
2018-08-19T18:08:53.627Z,25.90
2018-08-19T18:11:22.336Z,25.80
2018-08-19T18:13:50.855Z,25.60
2018-08-19T18:16:19.397Z,25.60
2018-08-19T18:18:48.459Z,25.40
2018-08-19T18:21:17.628Z,25.30
2018-08-19T18:23:47.728Z,25.20
2018-08-19T18:26:16.562Z,25.10
2018-08-19T18:28:47.159Z,25.00
2018-08-19T18:31:20.734Z,24.90
2018-08-19T18:34:06.352Z,24.80
2018-08-19T18:36:35.582Z,24.80
2018-08-19T18:39:06.639Z,24.70
2018-08-19T18:41:36.750Z,24.70
2018-08-19T18:44:06.810Z,24.50
2018-08-19T18:46:35.812Z,24.40
2018-08-19T18:49:13.451Z,24.30
2018-08-19T18:51:46.107Z,24.30
2018-08-19T18:54:32.384Z,24.10
2018-08-19T18:57:03.941Z,24.00
2018-08-19T18:59:32.545Z,23.90
2018-08-19T19:02:02.325Z,23.90
2018-08-19T19:04:31.039Z,23.80
2018-08-19T19:06:59.929Z,23.80
2018-08-19T19:09:36.392Z,23.70
2018-08-19T19:12:05.298Z,23.70
2018-08-19T19:14:33.906Z,23.70
2018-08-19T19:17:02.473Z,23.70
2018-08-19T19:19:35.216Z,23.50
2018-08-19T19:22:03.722Z,23.40
2018-08-19T19:24:41.328Z,23.20
2018-08-19T19:27:10.667Z,23.10
2018-08-19T19:29:39.517Z,23.00
2018-08-19T19:32:23.413Z,22.90
2018-08-19T19:34:51.967Z,22.90
2018-08-19T19:37:20.982Z,22.80
2018-08-19T19:39:55.115Z,22.70
2018-08-19T19:42:23.903Z,22.70
2018-08-19T19:44:52.405Z,22.60
2018-08-19T19:47:21.102Z,22.60
2018-08-19T19:49:53.843Z,22.60
2018-08-19T19:52:22.531Z,22.60
2018-08-19T19:54:50.995Z,22.50
2018-08-19T19:57:19.482Z,22.50
2018-08-19T19:59:48.090Z,22.50
2018-08-19T20:02:22.943Z,22.40
2018-08-19T20:04:51.485Z,22.40
2018-08-19T20:07:20.133Z,22.40
2018-08-19T20:09:48.631Z,22.30
2018-08-19T20:12:31.876Z,22.30
2018-08-19T20:15:00.592Z,22.20
2018-08-19T20:17:29.192Z,22.20
2018-08-19T20:19:57.808Z,22.10
2018-08-19T20:22:26.279Z,22.00
2018-08-19T20:24:54.800Z,21.90
2018-08-19T20:27:23.301Z,21.90
2018-08-19T20:29:53.441Z,21.80
2018-08-19T20:32:22.019Z,21.80
2018-08-19T20:34:50.751Z,21.70
2018-08-19T20:37:22.915Z,21.60
2018-08-19T20:39:51.694Z,21.60
2018-08-19T20:42:20.578Z,21.50
2018-08-19T20:44:49.252Z,21.50
2018-08-19T20:47:17.758Z,21.40
2018-08-19T20:49:48.606Z,21.40
2018-08-19T20:52:17.195Z,21.30
2018-08-19T20:54:45.667Z,21.20
2018-08-19T20:57:14.423Z,21.20
2018-08-19T20:59:42.904Z,21.10
2018-08-19T21:02:11.420Z,21.10
2018-08-19T21:04:39.865Z,21.10
2018-08-19T21:07:08.379Z,21.00
2018-08-19T21:09:36.879Z,21.00
2018-08-19T21:12:05.474Z,21.00
2018-08-19T21:14:34.109Z,20.90
2018-08-19T21:17:04.162Z,20.90
2018-08-19T21:19:32.933Z,20.80
2018-08-19T21:22:01.493Z,20.80
2018-08-19T21:24:30.095Z,20.80
2018-08-19T21:27:01.614Z,20.70
2018-08-19T21:29:30.979Z,20.60
2018-08-19T21:31:59.481Z,20.60
2018-08-19T21:34:28.554Z,20.50
2018-08-19T21:36:57.487Z,20.60
2018-08-19T21:39:26.059Z,20.60
2018-08-19T21:41:55.596Z,20.50
2018-08-19T21:44:24.167Z,20.50
2018-08-19T21:46:52.716Z,20.40
2018-08-19T21:49:21.274Z,20.30
2018-08-19T21:51:49.777Z,20.30
2018-08-19T21:54:18.530Z,20.20
2018-08-19T21:56:47.003Z,20.10
2018-08-19T21:59:31.089Z,20.10
2018-08-19T22:02:00.670Z,20.00
2018-08-19T22:04:30.387Z,20.00
2018-08-19T22:06:59.016Z,19.90
2018-08-19T22:09:35.875Z,19.90
2018-08-19T22:12:06.424Z,19.90
2018-08-19T22:14:35.312Z,19.90
2018-08-19T22:17:08.534Z,19.80
2018-08-19T22:19:37.553Z,19.80
2018-08-19T22:22:06.185Z,19.70
2018-08-19T22:24:34.832Z,19.60
2018-08-19T22:27:08.712Z,19.60
2018-08-19T22:29:37.366Z,19.60
2018-08-19T22:32:05.885Z,19.60
2018-08-19T22:34:34.363Z,19.50
2018-08-19T22:37:03.102Z,19.50
2018-08-19T22:39:31.655Z,19.40
2018-08-19T22:42:00.126Z,19.40
2018-08-19T22:44:28.632Z,19.30
2018-08-19T22:46:57.100Z,19.30
2018-08-19T22:49:27.971Z,19.30
2018-08-19T22:52:06.271Z,19.20
2018-08-19T22:54:34.824Z,19.20
2018-08-19T22:57:03.312Z,19.10
2018-08-19T22:59:31.792Z,19.10
2018-08-19T23:02:00.290Z,19.00
2018-08-19T23:04:28.919Z,19.00
2018-08-19T23:06:57.477Z,19.00
2018-08-19T23:09:25.960Z,18.90
2018-08-19T23:11:54.428Z,18.90
2018-08-19T23:14:34.100Z,19.00
2018-08-19T23:17:03.386Z,18.90
2018-08-19T23:19:31.845Z,18.80
2018-08-19T23:22:00.295Z,18.80
2018-08-19T23:24:28.832Z,18.70
2018-08-19T23:26:57.485Z,18.70
2018-08-19T23:29:26.012Z,18.70
2018-08-19T23:31:54.821Z,18.70
2018-08-19T23:34:23.278Z,18.60
2018-08-19T23:36:51.771Z,18.60
2018-08-19T23:39:20.253Z,18.60
2018-08-19T23:41:59.449Z,18.50
2018-08-19T23:44:27.907Z,18.40
2018-08-19T23:46:56.404Z,18.40
2018-08-19T23:49:24.893Z,18.40
2018-08-19T23:51:53.417Z,18.30
2018-08-19T23:54:21.916Z,18.30
2018-08-19T23:56:50.503Z,18.30
2018-08-19T23:59:26.210Z,18.20
